sensor_id;sensor_type;location;lat;lon;timestamp;temperature;humidity
64718;DHT22;62506;46.070;14.492;2023-01-10T00:02:15;21.40;58.00
64718;DHT22;62506;46.070;14.492;2023-01-10T00:04:42;21.30;57.90
64718;DHT22;62506;46.070;14.492;2023-01-10T00:07:07;21.30;57.90
64718;DHT22;62506;46.070;14.492;2023-01-10T00:09:33;21.30;58.10
64718;DHT22;62506;46.070;14.492;2023-01-10T00:11:58;21.30;58.00
64718;DHT22;62506;46.070;14.492;2023-01-10T00:14:42;21.30;58.00
64718;DHT22;62506;46.070;14.492;2023-01-10T00:17:08;21.30;58.00
64718;DHT22;62506;46.070;14.492;2023-01-10T00:19:33;21.30;58.00
64718;DHT22;62506;46.070;14.492;2023-01-10T00:21:59;21.30;58.10
64718;DHT22;62506;46.070;14.492;2023-01-10T00:24:30;21.30;58.10
64718;DHT22;62506;46.070;14.492;2023-01-10T00:26:55;21.30;57.90
64718;DHT22;62506;46.070;14.492;2023-01-10T00:29:24;21.30;58.10
64718;DHT22;62506;46.070;14.492;2023-01-10T00:31:49;21.30;58.10
64718;DHT22;62506;46.070;14.492;2023-01-10T00:34:15;21.30;58.10
64718;DHT22;62506;46.070;14.492;2023-01-10T00:36:40;21.30;58.20
64718;DHT22;62506;46.070;14.492;2023-01-10T00:39:06;21.30;58.10
64718;DHT22;62506;46.070;14.492;2023-01-10T00:41:33;21.30;58.20
64718;DHT22;62506;46.070;14.492;2023-01-10T00:44:17;21.30;58.10
64718;DHT22;62506;46.070;14.492;2023-01-10T00:46:42;21.30;58.10
64718;DHT22;62506;46.070;14.492;2023-01-10T00:49:08;21.30;58.20
64718;DHT22;62506;46.070;14.492;2023-01-10T00:51:35;21.30;58.20
64718;DHT22;62506;46.070;14.492;2023-01-10T00:54:00;21.30;58.30
64718;DHT22;62506;46.070;14.492;2023-01-10T00:56:26;21.30;58.40
64718;DHT22;62506;46.070;14.492;2023-01-10T00:58:51;21.30;58.40
64718;DHT22;62506;46.070;14.492;2023-01-10T01:01:17;21.30;58.40
64718;DHT22;62506;46.070;14.492;2023-01-10T01:03:42;21.30;58.50
64718;DHT22;62506;46.070;14.492;2023-01-10T01:06:08;21.30;58.40
64718;DHT22;62506;46.070;14.492;2023-01-10T01:08:33;21.30;58.40
64718;DHT22;62506;46.070;14.492;2023-01-10T01:10:59;21.30;58.50
64718;DHT22;62506;46.070;14.492;2023-01-10T01:13:25;21.30;58.40
64718;DHT22;62506;46.070;14.492;2023-01-10T01:15:50;21.30;58.50
64718;DHT22;62506;46.070;14.492;2023-01-10T01:18:17;21.20;58.60
64718;DHT22;62506;46.070;14.492;2023-01-10T01:20:43;21.30;58.40
64718;DHT22;62506;46.070;14.492;2023-01-10T01:23:12;21.30;58.70
64718;DHT22;62506;46.070;14.492;2023-01-10T01:25:38;21.20;58.60
64718;DHT22;62506;46.070;14.492;2023-01-10T01:28:03;21.20;59.30
64718;DHT22;62506;46.070;14.492;2023-01-10T01:30:29;21.20;58.70
64718;DHT22;62506;46.070;14.492;2023-01-10T01:32:54;21.20;58.60
64718;DHT22;62506;46.070;14.492;2023-01-10T01:35:20;21.20;58.50
64718;DHT22;62506;46.070;14.492;2023-01-10T01:37:45;21.20;58.60
64718;DHT22;62506;46.070;14.492;2023-01-10T01:40:14;21.20;58.60
64718;DHT22;62506;46.070;14.492;2023-01-10T01:42:40;21.20;59.30
64718;DHT22;62506;46.070;14.492;2023-01-10T01:47:32;21.20;58.80
64718;DHT22;62506;46.070;14.492;2023-01-10T01:49:59;21.20;58.60
64718;DHT22;62506;46.070;14.492;2023-01-10T01:52:26;21.20;58.50
64718;DHT22;62506;46.070;14.492;2023-01-10T01:54:53;21.20;58.50
64718;DHT22;62506;46.070;14.492;2023-01-10T01:57:21;21.30;58.40
64718;DHT22;62506;46.070;14.492;2023-01-10T01:59:48;21.30;58.50
64718;DHT22;62506;46.070;14.492;2023-01-10T02:02:18;21.30;58.40
64718;DHT22;62506;46.070;14.492;2023-01-10T02:07:11;21.30;58.40
64718;DHT22;62506;46.070;14.492;2023-01-10T02:09:42;21.30;58.40
64718;DHT22;62506;46.070;14.492;2023-01-10T02:12:09;21.30;58.30
64718;DHT22;62506;46.070;14.492;2023-01-10T02:14:36;21.30;58.40
64718;DHT22;62506;46.070;14.492;2023-01-10T02:17:02;21.20;58.20
64718;DHT22;62506;46.070;14.492;2023-01-10T02:22:08;21.30;58.30
64718;DHT22;62506;46.070;14.492;2023-01-10T02:27:25;21.30;58.30
64718;DHT22;62506;46.070;14.492;2023-01-10T02:30:15;21.30;58.30
64718;DHT22;62506;46.070;14.492;2023-01-10T02:37:59;21.30;58.30
64718;DHT22;62506;46.070;14.492;2023-01-10T02:40:33;21.30;58.20
64718;DHT22;62506;46.070;14.492;2023-01-10T02:43:02;21.30;58.30
64718;DHT22;62506;46.070;14.492;2023-01-10T02:45:32;21.30;58.30
64718;DHT22;62506;46.070;14.492;2023-01-10T02:48:00;21.30;58.30
64718;DHT22;62506;46.070;14.492;2023-01-10T02:53:08;21.20;58.20
64718;DHT22;62506;46.070;14.492;2023-01-10T03:00:56;21.20;58.20
64718;DHT22;62506;46.070;14.492;2023-01-10T03:03:40;21.20;58.20
64718;DHT22;62506;46.070;14.492;2023-01-10T03:08:57;21.20;58.30
64718;DHT22;62506;46.070;14.492;2023-01-10T03:11:24;21.20;58.30
64718;DHT22;62506;46.070;14.492;2023-01-10T03:14:05;21.20;58.30
64718;DHT22;62506;46.070;14.492;2023-01-10T03:16:31;21.20;58.20
64718;DHT22;62506;46.070;14.492;2023-01-10T03:19:12;21.20;58.30
64718;DHT22;62506;46.070;14.492;2023-01-10T03:21:39;21.20;58.40
64718;DHT22;62506;46.070;14.492;2023-01-10T03:24:11;21.20;58.40
64718;DHT22;62506;46.070;14.492;2023-01-10T03:26:43;21.20;58.30
64718;DHT22;62506;46.070;14.492;2023-01-10T03:29:12;21.20;58.40
64718;DHT22;62506;46.070;14.492;2023-01-10T03:31:44;21.20;58.30
64718;DHT22;62506;46.070;14.492;2023-01-10T03:34:12;21.20;58.40
64718;DHT22;62506;46.070;14.492;2023-01-10T03:41:36;21.20;58.50
64718;DHT22;62506;46.070;14.492;2023-01-10T03:49:55;21.20;58.60
64718;DHT22;62506;46.070;14.492;2023-01-10T03:52:22;21.20;58.70
64718;DHT22;62506;46.070;14.492;2023-01-10T03:54:49;21.20;58.50
64718;DHT22;62506;46.070;14.492;2023-01-10T03:57:16;21.20;58.60
64718;DHT22;62506;46.070;14.492;2023-01-10T03:59:41;21.20;58.60
64718;DHT22;62506;46.070;14.492;2023-01-10T04:02:07;21.20;58.60
64718;DHT22;62506;46.070;14.492;2023-01-10T04:04:33;21.20;58.70
64718;DHT22;62506;46.070;14.492;2023-01-10T04:06:58;21.20;58.70
64718;DHT22;62506;46.070;14.492;2023-01-10T04:09:23;21.20;58.60
64718;DHT22;62506;46.070;14.492;2023-01-10T04:11:49;21.20;58.70
64718;DHT22;62506;46.070;14.492;2023-01-10T04:14:14;21.20;58.70
64718;DHT22;62506;46.070;14.492;2023-01-10T04:16:40;21.20;58.70
64718;DHT22;62506;46.070;14.492;2023-01-10T04:19:05;21.10;58.60
64718;DHT22;62506;46.070;14.492;2023-01-10T04:21:31;21.20;58.70
64718;DHT22;62506;46.070;14.492;2023-01-10T04:23:56;21.20;58.70
64718;DHT22;62506;46.070;14.492;2023-01-10T04:26:22;21.20;58.80
64718;DHT22;62506;46.070;14.492;2023-01-10T04:28:47;21.20;58.70
64718;DHT22;62506;46.070;14.492;2023-01-10T04:31:13;21.10;59.30
64718;DHT22;62506;46.070;14.492;2023-01-10T04:33:39;21.20;58.70
64718;DHT22;62506;46.070;14.492;2023-01-10T04:36:05;21.20;58.60
64718;DHT22;62506;46.070;14.492;2023-01-10T04:38:31;21.20;58.50
64718;DHT22;62506;46.070;14.492;2023-01-10T04:40:56;21.20;58.50
64718;DHT22;62506;46.070;14.492;2023-01-10T04:43:23;21.20;58.50
64718;DHT22;62506;46.070;14.492;2023-01-10T04:45:48;21.20;58.40
64718;DHT22;62506;46.070;14.492;2023-01-10T04:48:14;21.20;58.60
64718;DHT22;62506;46.070;14.492;2023-01-10T04:50:39;21.20;58.70
64718;DHT22;62506;46.070;14.492;2023-01-10T04:53:05;21.20;58.80
64718;DHT22;62506;46.070;14.492;2023-01-10T04:55:31;21.20;58.90
64718;DHT22;62506;46.070;14.492;2023-01-10T04:57:57;21.20;59.00
64718;DHT22;62506;46.070;14.492;2023-01-10T05:00:22;21.30;59.20
64718;DHT22;62506;46.070;14.492;2023-01-10T05:02:47;21.30;59.20
64718;DHT22;62506;46.070;14.492;2023-01-10T05:05:13;21.40;59.30
64718;DHT22;62506;46.070;14.492;2023-01-10T05:07:39;21.40;59.30
64718;DHT22;62506;46.070;14.492;2023-01-10T05:10:05;21.40;59.00
64718;DHT22;62506;46.070;14.492;2023-01-10T05:12:31;21.50;59.30
64718;DHT22;62506;46.070;14.492;2023-01-10T05:14:57;21.50;59.00
64718;DHT22;62506;46.070;14.492;2023-01-10T05:17:22;21.60;58.80
64718;DHT22;62506;46.070;14.492;2023-01-10T05:19:48;21.60;59.10
64718;DHT22;62506;46.070;14.492;2023-01-10T05:22:13;21.60;59.00
64718;DHT22;62506;46.070;14.492;2023-01-10T05:24:39;21.70;59.30
64718;DHT22;62506;46.070;14.492;2023-01-10T05:27:04;21.70;59.10
64718;DHT22;62506;46.070;14.492;2023-01-10T05:29:31;21.70;58.70
64718;DHT22;62506;46.070;14.492;2023-01-10T05:31:56;21.80;58.90
64718;DHT22;62506;46.070;14.492;2023-01-10T05:34:22;21.80;58.70
64718;DHT22;62506;46.070;14.492;2023-01-10T05:36:47;21.80;58.70
64718;DHT22;62506;46.070;14.492;2023-01-10T05:39:13;21.80;58.50
64718;DHT22;62506;46.070;14.492;2023-01-10T05:41:38;21.90;58.40
64718;DHT22;62506;46.070;14.492;2023-01-10T05:44:05;21.90;58.40
64718;DHT22;62506;46.070;14.492;2023-01-10T05:46:30;22.00;58.20
64718;DHT22;62506;46.070;14.492;2023-01-10T05:48:56;21.90;58.00
64718;DHT22;62506;46.070;14.492;2023-01-10T05:51:21;21.90;58.00
64718;DHT22;62506;46.070;14.492;2023-01-10T05:53:47;21.90;57.80
64718;DHT22;62506;46.070;14.492;2023-01-10T05:56:12;21.90;57.80
64718;DHT22;62506;46.070;14.492;2023-01-10T05:58:38;22.00;57.80
64718;DHT22;62506;46.070;14.492;2023-01-10T06:01:03;22.00;58.20
64718;DHT22;62506;46.070;14.492;2023-01-10T06:03:29;21.90;57.90
64718;DHT22;62506;46.070;14.492;2023-01-10T06:05:54;21.90;57.60
64718;DHT22;62506;46.070;14.492;2023-01-10T06:08:20;21.90;57.50
64718;DHT22;62506;46.070;14.492;2023-01-10T06:10:47;21.90;57.40
64718;DHT22;62506;46.070;14.492;2023-01-10T06:13:12;21.80;57.40
64718;DHT22;62506;46.070;14.492;2023-01-10T06:15:38;21.80;57.40
64718;DHT22;62506;46.070;14.492;2023-01-10T06:18:03;21.80;57.40
64718;DHT22;62506;46.070;14.492;2023-01-10T06:20:29;21.80;57.60
64718;DHT22;62506;46.070;14.492;2023-01-10T06:22:55;21.80;57.60
64718;DHT22;62506;46.070;14.492;2023-01-10T06:25:20;21.70;57.40
64718;DHT22;62506;46.070;14.492;2023-01-10T06:27:45;21.70;57.50
64718;DHT22;62506;46.070;14.492;2023-01-10T06:30:12;21.70;57.80
64718;DHT22;62506;46.070;14.492;2023-01-10T06:32:38;21.70;57.60
64718;DHT22;62506;46.070;14.492;2023-01-10T06:35:05;21.70;57.90
64718;DHT22;62506;46.070;14.492;2023-01-10T06:37:31;21.70;57.70
64718;DHT22;62506;46.070;14.492;2023-01-10T06:39:56;21.70;57.70
64718;DHT22;62506;46.070;14.492;2023-01-10T06:42:22;21.70;57.70
64718;DHT22;62506;46.070;14.492;2023-01-10T06:44:47;21.70;57.70
64718;DHT22;62506;46.070;14.492;2023-01-10T06:47:13;21.70;57.50
64718;DHT22;62506;46.070;14.492;2023-01-10T06:49:38;21.70;57.80
64718;DHT22;62506;46.070;14.492;2023-01-10T06:52:04;21.70;57.60
64718;DHT22;62506;46.070;14.492;2023-01-10T06:54:29;21.70;57.60
64718;DHT22;62506;46.070;14.492;2023-01-10T06:56:55;21.70;57.60
64718;DHT22;62506;46.070;14.492;2023-01-10T06:59:20;21.70;57.40
64718;DHT22;62506;46.070;14.492;2023-01-10T07:01:46;21.80;57.40
64718;DHT22;62506;46.070;14.492;2023-01-10T07:04:11;21.80;57.30
64718;DHT22;62506;46.070;14.492;2023-01-10T07:06:37;21.80;57.20
64718;DHT22;62506;46.070;14.492;2023-01-10T07:09:03;21.80;57.20
64718;DHT22;62506;46.070;14.492;2023-01-10T07:11:29;21.80;57.20
64718;DHT22;62506;46.070;14.492;2023-01-10T07:13:56;21.80;57.20
64718;DHT22;62506;46.070;14.492;2023-01-10T07:16:21;21.70;57.10
64718;DHT22;62506;46.070;14.492;2023-01-10T07:18:47;21.70;57.10
64718;DHT22;62506;46.070;14.492;2023-01-10T07:21:12;21.70;57.10
64718;DHT22;62506;46.070;14.492;2023-01-10T07:23:38;21.70;57.00
64718;DHT22;62506;46.070;14.492;2023-01-10T07:26:05;21.70;57.00
64718;DHT22;62506;46.070;14.492;2023-01-10T07:28:30;21.70;57.00
64718;DHT22;62506;46.070;14.492;2023-01-10T07:30:59;21.70;57.00
64718;DHT22;62506;46.070;14.492;2023-01-10T07:33:25;21.70;57.00
64718;DHT22;62506;46.070;14.492;2023-01-10T07:35:50;21.70;56.90
64718;DHT22;62506;46.070;14.492;2023-01-10T07:38:16;21.70;56.80
64718;DHT22;62506;46.070;14.492;2023-01-10T07:40:41;21.70;57.00
64718;DHT22;62506;46.070;14.492;2023-01-10T07:43:07;21.70;56.90
64718;DHT22;62506;46.070;14.492;2023-01-10T07:45:32;21.70;56.80
64718;DHT22;62506;46.070;14.492;2023-01-10T07:47:59;21.70;56.80
64718;DHT22;62506;46.070;14.492;2023-01-10T07:50:25;21.70;56.80
64718;DHT22;62506;46.070;14.492;2023-01-10T07:52:51;21.70;56.90
64718;DHT22;62506;46.070;14.492;2023-01-10T07:55:17;21.70;56.80
64718;DHT22;62506;46.070;14.492;2023-01-10T07:57:43;21.70;56.70
64718;DHT22;62506;46.070;14.492;2023-01-10T08:00:08;21.70;56.60
64718;DHT22;62506;46.070;14.492;2023-01-10T08:02:34;21.70;56.70
64718;DHT22;62506;46.070;14.492;2023-01-10T08:04:59;21.70;56.60
64718;DHT22;62506;46.070;14.492;2023-01-10T08:07:27;21.70;56.50
64718;DHT22;62506;46.070;14.492;2023-01-10T08:09:52;21.70;56.50
64718;DHT22;62506;46.070;14.492;2023-01-10T08:12:19;21.70;56.50
64718;DHT22;62506;46.070;14.492;2023-01-10T08:14:44;21.70;56.50
64718;DHT22;62506;46.070;14.492;2023-01-10T08:17:10;21.70;56.70
64718;DHT22;62506;46.070;14.492;2023-01-10T08:19:35;21.70;56.60
64718;DHT22;62506;46.070;14.492;2023-01-10T08:22:01;21.70;56.80
64718;DHT22;62506;46.070;14.492;2023-01-10T08:24:27;21.70;56.70
64718;DHT22;62506;46.070;14.492;2023-01-10T08:26:52;21.70;56.60
64718;DHT22;62506;46.070;14.492;2023-01-10T08:29:18;21.70;56.70
64718;DHT22;62506;46.070;14.492;2023-01-10T08:31:43;21.70;56.60
64718;DHT22;62506;46.070;14.492;2023-01-10T08:34:11;21.70;56.30
64718;DHT22;62506;46.070;14.492;2023-01-10T08:36:36;21.80;56.40
64718;DHT22;62506;46.070;14.492;2023-01-10T08:39:02;21.80;56.30
64718;DHT22;62506;46.070;14.492;2023-01-10T08:41:27;21.80;56.20
64718;DHT22;62506;46.070;14.492;2023-01-10T08:43:53;21.80;56.20
64718;DHT22;62506;46.070;14.492;2023-01-10T08:46:19;21.90;56.90
64718;DHT22;62506;46.070;14.492;2023-01-10T08:48:44;21.90;56.00
64718;DHT22;62506;46.070;14.492;2023-01-10T08:51:10;21.90;56.00
64718;DHT22;62506;46.070;14.492;2023-01-10T08:53:37;21.90;56.00
64718;DHT22;62506;46.070;14.492;2023-01-10T08:56:03;21.90;56.00
64718;DHT22;62506;46.070;14.492;2023-01-10T08:58:28;21.90;56.00
64718;DHT22;62506;46.070;14.492;2023-01-10T09:00:54;21.90;56.00
64718;DHT22;62506;46.070;14.492;2023-01-10T09:03:19;21.80;56.00
64718;DHT22;62506;46.070;14.492;2023-01-10T09:05:45;21.80;55.80
64718;DHT22;62506;46.070;14.492;2023-01-10T09:08:10;21.80;55.80
64718;DHT22;62506;46.070;14.492;2023-01-10T09:10:39;21.80;55.80
64718;DHT22;62506;46.070;14.492;2023-01-10T09:13:05;21.80;55.80
64718;DHT22;62506;46.070;14.492;2023-01-10T09:15:32;21.80;55.80
64718;DHT22;62506;46.070;14.492;2023-01-10T09:17:58;21.80;55.30
64718;DHT22;62506;46.070;14.492;2023-01-10T09:20:24;21.80;55.30
64718;DHT22;62506;46.070;14.492;2023-01-10T09:22:50;21.80;55.70
64718;DHT22;62506;46.070;14.492;2023-01-10T09:25:16;21.80;55.70
64718;DHT22;62506;46.070;14.492;2023-01-10T09:27:41;21.80;55.80
64718;DHT22;62506;46.070;14.492;2023-01-10T09:30:07;21.90;55.70
64718;DHT22;62506;46.070;14.492;2023-01-10T09:32:32;21.90;55.70
64718;DHT22;62506;46.070;14.492;2023-01-10T09:34:58;21.80;51.80
64718;DHT22;62506;46.070;14.492;2023-01-10T09:37:24;21.70;50.60
64718;DHT22;62506;46.070;14.492;2023-01-10T09:39:49;21.70;52.90
64718;DHT22;62506;46.070;14.492;2023-01-10T09:44:56;21.80;54.40
64718;DHT22;62506;46.070;14.492;2023-01-10T09:52:32;22.00;54.20
64718;DHT22;62506;46.070;14.492;2023-01-10T09:55:14;22.00;54.10
64718;DHT22;62506;46.070;14.492;2023-01-10T09:57:41;22.00;54.00
64718;DHT22;62506;46.070;14.492;2023-01-10T10:00:07;22.00;54.10
64718;DHT22;62506;46.070;14.492;2023-01-10T10:02:33;22.00;54.20
64718;DHT22;62506;46.070;14.492;2023-01-10T10:05:03;22.00;54.20
64718;DHT22;62506;46.070;14.492;2023-01-10T10:07:31;22.00;54.30
64718;DHT22;62506;46.070;14.492;2023-01-10T10:09:57;22.10;54.80
64718;DHT22;62506;46.070;14.492;2023-01-10T10:22:47;21.90;55.10
64718;DHT22;62506;46.070;14.492;2023-01-10T10:25:24;21.90;54.90
64718;DHT22;62506;46.070;14.492;2023-01-10T10:28:04;21.80;55.00
64718;DHT22;62506;46.070;14.492;2023-01-10T10:33:16;21.80;55.20
64718;DHT22;62506;46.070;14.492;2023-01-10T10:35:52;21.80;55.20
64718;DHT22;62506;46.070;14.492;2023-01-10T10:38:21;21.80;55.20
64718;DHT22;62506;46.070;14.492;2023-01-10T10:40:49;21.80;55.40
64718;DHT22;62506;46.070;14.492;2023-01-10T10:43:17;21.80;55.30
64718;DHT22;62506;46.070;14.492;2023-01-10T10:46:06;21.80;55.40
64718;DHT22;62506;46.070;14.492;2023-01-10T10:48:33;21.80;55.30
64718;DHT22;62506;46.070;14.492;2023-01-10T10:53:26;21.80;55.40
64718;DHT22;62506;46.070;14.492;2023-01-10T10:55:51;21.80;55.40
64718;DHT22;62506;46.070;14.492;2023-01-10T10:58:17;21.80;55.30
64718;DHT22;62506;46.070;14.492;2023-01-10T11:00:43;21.80;55.60
64718;DHT22;62506;46.070;14.492;2023-01-10T11:05:40;21.80;55.60
64718;DHT22;62506;46.070;14.492;2023-01-10T11:08:08;21.80;55.40
64718;DHT22;62506;46.070;14.492;2023-01-10T11:10:35;21.90;55.30
64718;DHT22;62506;46.070;14.492;2023-01-10T11:13:03;21.80;55.20
64718;DHT22;62506;46.070;14.492;2023-01-10T11:18:11;21.80;55.20
64718;DHT22;62506;46.070;14.492;2023-01-10T11:20:36;21.80;51.50
64718;DHT22;62506;46.070;14.492;2023-01-10T11:23:02;21.60;48.00
64718;DHT22;62506;46.070;14.492;2023-01-10T11:25:28;21.70;51.50
64718;DHT22;62506;46.070;14.492;2023-01-10T11:27:57;21.70;53.00
64718;DHT22;62506;46.070;14.492;2023-01-10T11:30:34;21.70;53.40
64718;DHT22;62506;46.070;14.492;2023-01-10T11:33:01;21.80;53.60
64718;DHT22;62506;46.070;14.492;2023-01-10T11:35:32;21.80;53.70
64718;DHT22;62506;46.070;14.492;2023-01-10T11:40:28;21.80;54.00
64718;DHT22;62506;46.070;14.492;2023-01-10T11:42:55;21.80;54.00
64718;DHT22;62506;46.070;14.492;2023-01-10T11:45:22;21.80;54.10
64718;DHT22;62506;46.070;14.492;2023-01-10T11:47:53;21.80;54.10
64718;DHT22;62506;46.070;14.492;2023-01-10T11:50:23;21.80;55.00
64718;DHT22;62506;46.070;14.492;2023-01-10T11:52:50;21.80;54.10
64718;DHT22;62506;46.070;14.492;2023-01-10T11:55:17;21.80;54.00
64718;DHT22;62506;46.070;14.492;2023-01-10T11:57:44;21.80;54.00
64718;DHT22;62506;46.070;14.492;2023-01-10T12:00:09;21.80;53.90
64718;DHT22;62506;46.070;14.492;2023-01-10T12:02:38;21.90;53.90
64718;DHT22;62506;46.070;14.492;2023-01-10T12:05:05;21.90;54.00
64718;DHT22;62506;46.070;14.492;2023-01-10T12:10:20;21.90;53.90
64718;DHT22;62506;46.070;14.492;2023-01-10T12:12:56;21.90;54.00
64718;DHT22;62506;46.070;14.492;2023-01-10T12:15:27;21.90;53.90
64718;DHT22;62506;46.070;14.492;2023-01-10T12:17:53;21.80;53.70
64718;DHT22;62506;46.070;14.492;2023-01-10T12:20:19;21.90;53.60
64718;DHT22;62506;46.070;14.492;2023-01-10T12:22:47;21.80;53.50
64718;DHT22;62506;46.070;14.492;2023-01-10T12:27:39;21.80;53.20
64718;DHT22;62506;46.070;14.492;2023-01-10T12:30:11;21.80;53.10
64718;DHT22;62506;46.070;14.492;2023-01-10T12:32:38;21.80;53.00
64718;DHT22;62506;46.070;14.492;2023-01-10T12:35:18;21.80;53.00
64718;DHT22;62506;46.070;14.492;2023-01-10T12:40:14;21.80;52.30
64718;DHT22;62506;46.070;14.492;2023-01-10T12:42:44;21.80;52.30
64718;DHT22;62506;46.070;14.492;2023-01-10T12:46:32;21.80;52.40
64718;DHT22;62506;46.070;14.492;2023-01-10T12:51:16;21.80;52.60
64718;DHT22;62506;46.070;14.492;2023-01-10T12:53:44;21.80;52.10
64718;DHT22;62506;46.070;14.492;2023-01-10T12:56:12;21.80;52.30
64718;DHT22;62506;46.070;14.492;2023-01-10T13:01:32;21.80;50.60
64718;DHT22;62506;46.070;14.492;2023-01-10T13:04:06;21.80;50.90
64718;DHT22;62506;46.070;14.492;2023-01-10T13:06:34;21.80;51.40
64718;DHT22;62506;46.070;14.492;2023-01-10T13:09:03;21.70;51.20
64718;DHT22;62506;46.070;14.492;2023-01-10T13:11:30;21.80;50.80
64718;DHT22;62506;46.070;14.492;2023-01-10T13:13:58;21.70;50.90
64718;DHT22;62506;46.070;14.492;2023-01-10T13:21:34;21.70;50.40
64718;DHT22;62506;46.070;14.492;2023-01-10T13:26:26;21.70;50.50
64718;DHT22;62506;46.070;14.492;2023-01-10T13:29:10;21.70;50.90
64718;DHT22;62506;46.070;14.492;2023-01-10T13:31:36;21.70;50.70
64718;DHT22;62506;46.070;14.492;2023-01-10T13:34:09;21.70;50.60
64718;DHT22;62506;46.070;14.492;2023-01-10T13:36:36;21.80;50.40
64718;DHT22;62506;46.070;14.492;2023-01-10T13:39:03;21.70;50.20
64718;DHT22;62506;46.070;14.492;2023-01-10T13:52:54;21.70;49.30
64718;DHT22;62506;46.070;14.492;2023-01-10T14:08:35;21.70;49.00
64718;DHT22;62506;46.070;14.492;2023-01-10T14:11:05;21.70;49.00
64718;DHT22;62506;46.070;14.492;2023-01-10T14:13:31;21.70;49.10
64718;DHT22;62506;46.070;14.492;2023-01-10T14:15:57;21.70;49.50
64718;DHT22;62506;46.070;14.492;2023-01-10T14:20:57;21.80;50.30
64718;DHT22;62506;46.070;14.492;2023-01-10T14:23:26;21.80;50.00
64718;DHT22;62506;46.070;14.492;2023-01-10T14:25:54;21.70;49.00
64718;DHT22;62506;46.070;14.492;2023-01-10T14:28:22;21.70;49.10
64718;DHT22;62506;46.070;14.492;2023-01-10T14:30:58;21.70;48.70
64718;DHT22;62506;46.070;14.492;2023-01-10T14:33:24;21.70;49.00
64718;DHT22;62506;46.070;14.492;2023-01-10T14:35:50;21.70;48.80
64718;DHT22;62506;46.070;14.492;2023-01-10T14:38:19;21.70;48.60
64718;DHT22;62506;46.070;14.492;2023-01-10T14:40:47;21.70;48.50
64718;DHT22;62506;46.070;14.492;2023-01-10T14:43:14;21.70;48.50
64718;DHT22;62506;46.070;14.492;2023-01-10T14:48:26;21.70;48.90
64718;DHT22;62506;46.070;14.492;2023-01-10T14:50:52;21.70;49.10
64718;DHT22;62506;46.070;14.492;2023-01-10T14:53:25;21.70;49.00
64718;DHT22;62506;46.070;14.492;2023-01-10T14:55:51;21.70;48.90
64718;DHT22;62506;46.070;14.492;2023-01-10T14:58:16;21.60;48.80
64718;DHT22;62506;46.070;14.492;2023-01-10T15:00:42;21.60;48.90
64718;DHT22;62506;46.070;14.492;2023-01-10T15:03:14;21.60;49.00
64718;DHT22;62506;46.070;14.492;2023-01-10T15:05:46;21.60;48.80
64718;DHT22;62506;46.070;14.492;2023-01-10T15:08:22;21.60;48.80
64718;DHT22;62506;46.070;14.492;2023-01-10T15:10:48;21.60;48.90
64718;DHT22;62506;46.070;14.492;2023-01-10T15:13:16;21.60;48.90
64718;DHT22;62506;46.070;14.492;2023-01-10T15:15:44;21.70;48.90
64718;DHT22;62506;46.070;14.492;2023-01-10T15:20:58;21.70;49.00
64718;DHT22;62506;46.070;14.492;2023-01-10T15:23:24;21.70;49.00
64718;DHT22;62506;46.070;14.492;2023-01-10T15:25:56;21.70;49.10
64718;DHT22;62506;46.070;14.492;2023-01-10T15:28:22;21.70;49.00
64718;DHT22;62506;46.070;14.492;2023-01-10T15:30:48;21.70;48.90
64718;DHT22;62506;46.070;14.492;2023-01-10T15:33:14;21.80;49.20
64718;DHT22;62506;46.070;14.492;2023-01-10T15:35:41;21.80;49.00
64718;DHT22;62506;46.070;14.492;2023-01-10T15:38:19;21.90;48.90
64718;DHT22;62506;46.070;14.492;2023-01-10T15:40:51;21.90;48.70
64718;DHT22;62506;46.070;14.492;2023-01-10T15:43:25;21.90;48.50
64718;DHT22;62506;46.070;14.492;2023-01-10T15:45:52;22.00;48.50
64718;DHT22;62506;46.070;14.492;2023-01-10T15:48:27;22.00;47.50
64718;DHT22;62506;46.070;14.492;2023-01-10T15:50:57;22.00;47.80
64718;DHT22;62506;46.070;14.492;2023-01-10T15:56:11;22.10;48.60
64718;DHT22;62506;46.070;14.492;2023-01-10T15:58:39;22.10;49.20
64718;DHT22;62506;46.070;14.492;2023-01-10T16:01:07;22.10;49.50
64718;DHT22;62506;46.070;14.492;2023-01-10T16:03:37;22.20;50.60
64718;DHT22;62506;46.070;14.492;2023-01-10T16:06:03;22.20;50.30
64718;DHT22;62506;46.070;14.492;2023-01-10T16:08:34;22.20;51.00
64718;DHT22;62506;46.070;14.492;2023-01-10T16:11:05;22.20;50.90
64718;DHT22;62506;46.070;14.492;2023-01-10T16:13:32;22.20;50.70
64718;DHT22;62506;46.070;14.492;2023-01-10T16:16:00;22.20;51.00
64718;DHT22;62506;46.070;14.492;2023-01-10T16:18:29;22.20;51.00
64718;DHT22;62506;46.070;14.492;2023-01-10T16:20:55;22.20;50.70
64718;DHT22;62506;46.070;14.492;2023-01-10T16:23:22;22.20;50.90
64718;DHT22;62506;46.070;14.492;2023-01-10T16:25:49;22.10;50.80
64718;DHT22;62506;46.070;14.492;2023-01-10T16:28:16;22.10;50.80
64718;DHT22;62506;46.070;14.492;2023-01-10T16:30:42;22.20;51.20
64718;DHT22;62506;46.070;14.492;2023-01-10T16:33:14;22.20;50.90
64718;DHT22;62506;46.070;14.492;2023-01-10T16:35:50;22.10;50.60
64718;DHT22;62506;46.070;14.492;2023-01-10T16:38:16;22.20;50.70
64718;DHT22;62506;46.070;14.492;2023-01-10T16:40:43;22.20;50.70
64718;DHT22;62506;46.070;14.492;2023-01-10T16:43:09;22.10;50.70
64718;DHT22;62506;46.070;14.492;2023-01-10T16:48:14;22.20;50.80
64718;DHT22;62506;46.070;14.492;2023-01-10T16:50:40;22.20;50.70
64718;DHT22;62506;46.070;14.492;2023-01-10T16:53:06;22.10;48.90
64718;DHT22;62506;46.070;14.492;2023-01-10T16:55:35;22.10;49.90
64718;DHT22;62506;46.070;14.492;2023-01-10T16:58:01;22.10;50.10
64718;DHT22;62506;46.070;14.492;2023-01-10T17:00:26;22.20;50.40
64718;DHT22;62506;46.070;14.492;2023-01-10T17:02:52;22.20;50.60
64718;DHT22;62506;46.070;14.492;2023-01-10T17:05:17;22.20;50.40
64718;DHT22;62506;46.070;14.492;2023-01-10T17:07:43;22.20;50.20
64718;DHT22;62506;46.070;14.492;2023-01-10T17:10:10;22.20;50.10
64718;DHT22;62506;46.070;14.492;2023-01-10T17:12:36;22.20;50.10
64718;DHT22;62506;46.070;14.492;2023-01-10T17:15:03;22.20;50.10
64718;DHT22;62506;46.070;14.492;2023-01-10T17:17:29;22.20;50.00
64718;DHT22;62506;46.070;14.492;2023-01-10T17:19:57;22.20;50.00
64718;DHT22;62506;46.070;14.492;2023-01-10T17:22:23;22.20;50.00
64718;DHT22;62506;46.070;14.492;2023-01-10T17:24:48;22.20;50.00